»·PEaware :: N433YE KSDM-KSMO

N433YE :: KSDM-KSMO

FLIGHT INFORMATION

Flight Status: Arrived
Operator: Privately registered:
United States
More flights under this callsign
Pilot: Jeremy H. (10741)
Aircraft: Diamond DA-62
(DA62)
More flights by this aircraft type
Origin: KSDM Brown Mun
United States
Destination: KSMO Santa Monica Mun
United States
More flights between these airports :: More routes between these airports
Route: MZB V23 DANAH V363 BAYJY V186 DARTS
File this flight plan on PilotEdge
Remarks:
Altitude:
(Current/Filed)
6,000ft
Speed:
(Current/Filed)
184kts
Departed: 04-Aug-18 08:20 PM
Arrived: 04-Aug-18 09:10 PM
Distance/Time
Traveled:
114nm/0:50
Distance/Time
To Go:
Arrived

Flight Plot

Page will automatically refresh every two minutes.

Flight plan parsing failed; only flown route is shown


Map Options




Map Legend


Flown Route
Filed Route
Departure Airport
Arrival Airport
Navaid (VOR, NDB)
Fix

Horizontal Profiles

Position Reports

Time Latitude Longitude Heading Altitude Ground
Speed
04-Aug-18 19:53 32.570807 -116.990418 14 520ft 0kts
04-Aug-18 19:54 32.570807 -116.990418 14 520ft 0kts
04-Aug-18 19:55 32.570807 -116.990418 14 520ft 0kts
04-Aug-18 19:56 32.570807 -116.990418 14 520ft 0kts
04-Aug-18 19:57 32.570807 -116.990418 14 520ft 0kts
04-Aug-18 19:58 32.570807 -116.990418 14 520ft 0kts
04-Aug-18 19:59 32.570807 -116.990418 14 520ft 0kts
04-Aug-18 20:00 32.570807 -116.990418 14 520ft 0kts
04-Aug-18 20:01 32.570807 -116.990418 14 520ft 0kts
04-Aug-18 20:02 32.570807 -116.990418 14 520ft 0kts
04-Aug-18 20:03 32.570807 -116.990418 14 520ft 0kts
04-Aug-18 20:04 32.570807 -116.990418 14 520ft 0kts
04-Aug-18 20:05 32.570807 -116.990418 14 520ft 0kts
04-Aug-18 20:06 32.570807 -116.990418 14 520ft 0kts
04-Aug-18 20:07 32.570807 -116.990418 14 520ft 0kts
04-Aug-18 20:08 32.570807 -116.990418 14 520ft 0kts
04-Aug-18 20:09 32.570807 -116.990418 14 520ft 0kts
04-Aug-18 20:10 32.570807 -116.990418 14 520ft 0kts
04-Aug-18 20:11 32.570807 -116.990418 14 520ft 0kts
04-Aug-18 20:12 32.570807 -116.990418 14 520ft 0kts
04-Aug-18 20:13 32.570807 -116.990418 14 520ft 0kts
04-Aug-18 20:14 32.570807 -116.990418 14 520ft 0kts
04-Aug-18 20:15 32.570807 -116.990418 14 520ft 0kts
04-Aug-18 20:16 32.571630 -116.990166 30 522ft 16kts
04-Aug-18 20:17 32.570580 -116.983233 96 515ft 24kts
04-Aug-18 20:18 32.569906 -116.975161 97 509ft 23kts
04-Aug-18 20:19 32.570070 -116.968405 6 506ft 16kts
04-Aug-18 20:20 32.571179 -116.968287 4 506ft 10kts
04-Aug-18 20:21 32.572084 -116.973339 275 509ft 80kts
04-Aug-18 20:22 32.575107 -117.004385 290 1741ft 90kts
04-Aug-18 20:23 32.583630 -117.031667 291 3170ft 89kts
04-Aug-18 20:24 32.596626 -117.055540 323 4571ft 90kts
04-Aug-18 20:25 32.616860 -117.073189 322 5922ft 96kts
04-Aug-18 20:26 32.647416 -117.100664 322 5999ft 165kts
04-Aug-18 20:27 32.685260 -117.135356 321 5991ft 174kts
04-Aug-18 20:28 32.723704 -117.170918 321 5990ft 176kts
04-Aug-18 20:29 32.762351 -117.206761 321 5990ft 176kts
04-Aug-18 20:30 32.805662 -117.233719 337 5990ft 177kts
04-Aug-18 20:31 32.851978 -117.254190 339 5988ft 177kts
04-Aug-18 20:32 32.898542 -117.273812 339 5987ft 178kts
04-Aug-18 20:33 32.945162 -117.293345 339 5984ft 178kts
04-Aug-18 20:34 32.991905 -117.312929 339 5982ft 178kts
04-Aug-18 20:35 33.038586 -117.332509 339 5981ft 178kts
04-Aug-18 20:36 33.085547 -117.352227 339 5981ft 179kts
04-Aug-18 20:37 33.132095 -117.371793 339 5989ft 179kts
04-Aug-18 20:38 33.179286 -117.391658 339 5987ft 180kts
04-Aug-18 20:39 33.226315 -117.411490 339 5985ft 180kts
04-Aug-18 20:40 33.265506 -117.446377 314 5984ft 177kts
04-Aug-18 20:41 33.300750 -117.487616 314 5999ft 177kts
04-Aug-18 20:42 33.336075 -117.528952 314 6005ft 178kts
04-Aug-18 20:43 33.371432 -117.570237 314 6007ft 178kts
04-Aug-18 20:44 33.406885 -117.611667 314 6008ft 178kts
04-Aug-18 20:45 33.442109 -117.652872 313 6007ft 178kts
04-Aug-18 20:46 33.477588 -117.694094 320 5996ft 179kts
04-Aug-18 20:47 33.526820 -117.705945 349 6003ft 182kts
04-Aug-18 20:48 33.577179 -117.714508 349 6001ft 182kts
04-Aug-18 20:49 33.627391 -117.722946 349 6000ft 182kts
04-Aug-18 20:50 33.677588 -117.732077 338 5993ft 181kts
04-Aug-18 20:51 33.724190 -117.753769 336 5997ft 180kts
04-Aug-18 20:52 33.770665 -117.775667 336 5997ft 180kts
04-Aug-18 20:53 33.820529 -117.781747 356 5996ft 183kts
04-Aug-18 20:54 33.871395 -117.782777 356 5993ft 183kts
04-Aug-18 20:55 33.922517 -117.783839 356 5976ft 184kts
04-Aug-18 20:56 33.973700 -117.784901 356 5985ft 184kts
04-Aug-18 20:57 34.014660 -117.806454 288 6002ft 174kts
04-Aug-18 20:58 34.031022 -117.861703 288 6009ft 175kts
04-Aug-18 20:59 34.047962 -117.916958 288 6007ft 176kts
04-Aug-18 21:00 34.065012 -117.972329 288 6013ft 176kts
04-Aug-18 21:01 34.082057 -118.027765 288 6009ft 177kts
04-Aug-18 21:02 34.099229 -118.083699 288 6001ft 178kts
04-Aug-18 21:03 34.116261 -118.139295 288 5997ft 178kts
04-Aug-18 21:04 34.133450 -118.195511 288 5995ft 179kts
04-Aug-18 21:05 34.150670 -118.251996 287 5992ft 180kts
04-Aug-18 21:06 34.126982 -118.297831 220 5670ft 186kts
04-Aug-18 21:07 34.089258 -118.341304 227 4851ft 176kts
04-Aug-18 21:08 34.062211 -118.386801 231 3247ft 161kts
04-Aug-18 21:09 34.033119 -118.431062 222 653ft 169kts
04-Aug-18 21:10 34.013006 -118.454621 227 127ft 42kts
04-Aug-18 21:11 34.013652 -118.455001 45 129ft 12kts
04-Aug-18 21:12 34.015935 -118.453051 312 138ft 0kts
04-Aug-18 21:13 34.015935 -118.453051 312 138ft 0kts
04-Aug-18 21:14 34.015935 -118.453051 312 138ft 0kts
04-Aug-18 21:15 34.015935 -118.453051 312 138ft 0kts
04-Aug-18 21:16 34.015935 -118.453051 312 138ft 0kts

Navigation Log

Ident Type
Flight plan parsing failed, navigation log unavailable